MMLM/LMM METAR and TAF weather

Enter ICAO airport designator
Station Type Date Time Source
MMLM METAR 2019/04/20 17:40 UTC NOAA

MMLM 201740Z 13018KT 10SM SCT220 27/17 A2996 RMK SLP146 8/001 HZY ISOL CU


Station Type Date Time Source
MMLM Decoded METAR 2019/04/20 17:40 UTC NOAA

Los Mochis Airport, Mexico (MMLM) 25-41N 109-05W
Apr 20, 2019 - 01:40 PM EDT / 2019.04.20 1740 UTC
Wind: from the SE (130 degrees) at 21 MPH (18 KT):0
Visibility: 10 mile(s):0
Sky conditions: partly cloudy
Temperature: 80 F (27 C)
Dew Point: 62 F (17 C)
Relative Humidity: 54%
Pressure (altimeter): 29.96 in. Hg (1014 hPa)
ob: MMLM 201740Z 13018KT 10SM SCT220 27/17 A2996 RMK SLP146 8/001 HZY ISOL CU
cycle: 17

Station Type Date Time Source
MMLM TAF 2019/04/20 18:10 UTC NOAA

TAF MMLM 201603Z 2018/2118 22014KT P6SM SCT120 BKN250
FM210600 34005KT P6SM SCT250
TEMPO 2111/2115 3SM BR SCT010
FM211700 22014KT P6SM SCT120 BKN250

Example: see airport list